sensor_id;sensor_type;location;lat;lon;timestamp;pressure;altitude;pressure_sealevel;temperature;humidity
71772;BME280;59606;52.138;5.424;2023-12-14T00:01:40;101054.22;;;6.13;100.00
71772;BME280;59606;52.138;5.424;2023-12-14T00:04:08;101060.19;;;6.15;100.00
71772;BME280;59606;52.138;5.424;2023-12-14T00:06:34;101077.47;;;6.14;100.00
71772;BME280;59606;52.138;5.424;2023-12-14T00:09:01;101081.78;;;6.14;100.00
71772;BME280;59606;52.138;5.424;2023-12-14T00:11:28;101093.06;;;6.11;100.00
71772;BME280;59606;52.138;5.424;2023-12-14T00:13:54;101091.41;;;6.09;100.00
71772;BME280;59606;52.138;5.424;2023-12-14T00:16:21;101096.66;;;6.07;100.00
71772;BME280;59606;52.138;5.424;2023-12-14T00:18:48;101098.44;;;6.05;100.00
71772;BME280;59606;52.138;5.424;2023-12-14T00:21:14;101103.53;;;6.07;100.00
71772;BME280;59606;52.138;5.424;2023-12-14T00:23:41;101106.13;;;6.07;100.00
71772;BME280;59606;52.138;5.424;2023-12-14T00:26:07;101110.47;;;6.06;100.00
71772;BME280;59606;52.138;5.424;2023-12-14T00:28:34;101112.22;;;6.06;100.00
71772;BME280;59606;52.138;5.424;2023-12-14T00:31:00;101126.94;;;6.04;100.00
71772;BME280;59606;52.138;5.424;2023-12-14T00:33:27;101130.41;;;6.03;100.00
71772;BME280;59606;52.138;5.424;2023-12-14T00:35:54;101126.13;;;6.02;100.00
71772;BME280;59606;52.138;5.424;2023-12-14T00:38:20;101135.47;;;6.06;100.00
71772;BME280;59606;52.138;5.424;2023-12-14T00:40:47;101138.06;;;6.06;100.00
71772;BME280;59606;52.138;5.424;2023-12-14T00:43:14;101133.72;;;6.08;100.00
71772;BME280;59606;52.138;5.424;2023-12-14T00:45:40;101139.81;;;6.05;100.00
71772;BME280;59606;52.138;5.424;2023-12-14T00:48:07;101145.06;;;6.04;100.00
71772;BME280;59606;52.138;5.424;2023-12-14T00:50:34;101133.00;;;6.03;100.00
71772;BME280;59606;52.138;5.424;2023-12-14T00:53:00;101139.00;;;6.03;100.00
71772;BME280;59606;52.138;5.424;2023-12-14T00:55:27;101147.72;;;6.01;100.00
71772;BME280;59606;52.138;5.424;2023-12-14T00:57:54;101145.25;;;5.96;100.00
71772;BME280;59606;52.138;5.424;2023-12-14T01:00:20;101150.41;;;5.98;100.00
71772;BME280;59606;52.138;5.424;2023-12-14T01:02:47;101157.31;;;5.97;100.00
71772;BME280;59606;52.138;5.424;2023-12-14T01:05:13;101161.69;;;5.95;100.00
71772;BME280;59606;52.138;5.424;2023-12-14T01:07:40;101163.44;;;5.95;100.00
71772;BME280;59606;52.138;5.424;2023-12-14T01:10:07;101179.00;;;5.91;100.00
71772;BME280;59606;52.138;5.424;2023-12-14T01:12:33;101185.03;;;5.94;100.00
71772;BME280;59606;52.138;5.424;2023-12-14T01:15:01;101191.06;;;5.93;100.00
71772;BME280;59606;52.138;5.424;2023-12-14T01:17:27;101192.78;;;5.94;100.00
71772;BME280;59606;52.138;5.424;2023-12-14T01:19:55;101192.84;;;5.90;100.00
71772;BME280;59606;52.138;5.424;2023-12-14T01:22:21;101199.66;;;5.93;100.00
71772;BME280;59606;52.138;5.424;2023-12-14T01:24:48;101197.81;;;5.97;100.00
71772;BME280;59606;52.138;5.424;2023-12-14T01:27:15;101204.81;;;5.95;100.00
71772;BME280;59606;52.138;5.424;2023-12-14T01:29:41;101206.56;;;5.93;100.00
71772;BME280;59606;52.138;5.424;2023-12-14T01:32:08;101206.59;;;5.91;100.00
71772;BME280;59606;52.138;5.424;2023-12-14T01:34:34;101210.03;;;5.91;100.00
71772;BME280;59606;52.138;5.424;2023-12-14T01:37:01;101211.75;;;5.93;100.00
71772;BME280;59606;52.138;5.424;2023-12-14T01:39:27;101213.47;;;5.94;100.00
71772;BME280;59606;52.138;5.424;2023-12-14T01:41:54;101216.03;;;5.92;100.00
71772;BME280;59606;52.138;5.424;2023-12-14T01:44:20;101216.91;;;5.93;100.00
71772;BME280;59606;52.138;5.424;2023-12-14T01:46:47;101221.28;;;5.90;100.00
71772;BME280;59606;52.138;5.424;2023-12-14T01:49:13;101231.66;;;5.89;100.00
71772;BME280;59606;52.138;5.424;2023-12-14T01:51:40;101239.38;;;5.90;100.00
71772;BME280;59606;52.138;5.424;2023-12-14T01:54:07;101242.91;;;5.86;100.00
71772;BME280;59606;52.138;5.424;2023-12-14T01:56:33;101255.84;;;5.86;100.00
71772;BME280;59606;52.138;5.424;2023-12-14T01:58:59;101260.16;;;5.87;100.00
71772;BME280;59606;52.138;5.424;2023-12-14T02:01:42;101257.50;;;5.89;100.00
71772;BME280;59606;52.138;5.424;2023-12-14T02:04:10;101261.78;;;5.90;100.00
71772;BME280;59606;52.138;5.424;2023-12-14T02:06:37;101266.19;;;5.86;100.00
71772;BME280;59606;52.138;5.424;2023-12-14T02:09:04;101275.69;;;5.86;100.00
71772;BME280;59606;52.138;5.424;2023-12-14T02:11:31;101286.03;;;5.86;100.00
71772;BME280;59606;52.138;5.424;2023-12-14T02:13:57;101280.84;;;5.86;100.00
71772;BME280;59606;52.138;5.424;2023-12-14T02:16:24;101280.78;;;5.89;100.00
71772;BME280;59606;52.138;5.424;2023-12-14T02:18:50;101291.19;;;5.87;100.00
71772;BME280;59606;52.138;5.424;2023-12-14T02:21:17;101291.25;;;5.84;100.00
71772;BME280;59606;52.138;5.424;2023-12-14T02:23:45;101303.28;;;5.85;100.00
71772;BME280;59606;52.138;5.424;2023-12-14T02:26:12;101301.53;;;5.87;100.00
71772;BME280;59606;52.138;5.424;2023-12-14T02:28:39;101316.97;;;5.89;100.00
71772;BME280;59606;52.138;5.424;2023-12-14T02:31:06;101326.56;;;5.85;100.00
71772;BME280;59606;52.138;5.424;2023-12-14T02:33:33;101328.31;;;5.85;100.00
71772;BME280;59606;52.138;5.424;2023-12-14T02:36:00;101330.88;;;5.85;100.00
71772;BME280;59606;52.138;5.424;2023-12-14T02:38:26;101333.56;;;5.82;100.00
71772;BME280;59606;52.138;5.424;2023-12-14T02:40:53;101347.38;;;5.81;100.00
71772;BME280;59606;52.138;5.424;2023-12-14T02:43:19;101344.78;;;5.81;100.00
71772;BME280;59606;52.138;5.424;2023-12-14T02:45:47;101345.75;;;5.77;100.00
71772;BME280;59606;52.138;5.424;2023-12-14T02:48:14;101344.91;;;5.76;100.00
71772;BME280;59606;52.138;5.424;2023-12-14T02:50:40;101354.38;;;5.77;100.00
71772;BME280;59606;52.138;5.424;2023-12-14T02:53:07;101358.66;;;5.77;100.00
71772;BME280;59606;52.138;5.424;2023-12-14T02:55:34;101353.59;;;5.74;100.00
71772;BME280;59606;52.138;5.424;2023-12-14T02:58:01;101351.88;;;5.73;100.00
71772;BME280;59606;52.138;5.424;2023-12-14T03:00:27;101363.06;;;5.73;100.00
71772;BME280;59606;52.138;5.424;2023-12-14T03:02:53;101370.81;;;5.73;100.00
71772;BME280;59606;52.138;5.424;2023-12-14T03:05:20;101364.78;;;5.74;100.00
71772;BME280;59606;52.138;5.424;2023-12-14T03:07:47;101363.94;;;5.74;100.00
71772;BME280;59606;52.138;5.424;2023-12-14T03:10:13;101373.41;;;5.73;100.00
71772;BME280;59606;52.138;5.424;2023-12-14T03:12:40;101369.97;;;5.73;100.00
71772;BME280;59606;52.138;5.424;2023-12-14T03:15:06;101377.78;;;5.71;100.00
71772;BME280;59606;52.138;5.424;2023-12-14T03:17:34;101374.31;;;5.72;100.00
71772;BME280;59606;52.138;5.424;2023-12-14T03:20:01;101376.88;;;5.72;100.00
71772;BME280;59606;52.138;5.424;2023-12-14T03:22:29;101384.69;;;5.71;100.00
71772;BME280;59606;52.138;5.424;2023-12-14T03:24:56;101371.84;;;5.67;100.00
71772;BME280;59606;52.138;5.424;2023-12-14T03:27:22;101376.97;;;5.69;100.00
71772;BME280;59606;52.138;5.424;2023-12-14T03:29:49;101383.06;;;5.66;100.00
71772;BME280;59606;52.138;5.424;2023-12-14T03:32:16;101384.81;;;5.66;100.00
71772;BME280;59606;52.138;5.424;2023-12-14T03:34:43;101379.63;;;5.66;100.00
71772;BME280;59606;52.138;5.424;2023-12-14T03:37:09;101377.94;;;5.65;100.00
71772;BME280;59606;52.138;5.424;2023-12-14T03:39:36;101384.00;;;5.64;100.00
71772;BME280;59606;52.138;5.424;2023-12-14T03:42:02;101372.78;;;5.65;100.00
71772;BME280;59606;52.138;5.424;2023-12-14T03:44:29;101377.13;;;5.63;100.00
71772;BME280;59606;52.138;5.424;2023-12-14T03:46:55;101378.00;;;5.63;100.00
71772;BME280;59606;52.138;5.424;2023-12-14T03:49:24;101379.69;;;5.64;100.00
71772;BME280;59606;52.138;5.424;2023-12-14T03:51:50;101387.44;;;5.64;100.00
71772;BME280;59606;52.138;5.424;2023-12-14T03:54:17;101382.28;;;5.64;100.00
71772;BME280;59606;52.138;5.424;2023-12-14T03:56:44;101380.47;;;5.66;100.00
71772;BME280;59606;52.138;5.424;2023-12-14T03:59:10;101395.13;;;5.67;100.00
71772;BME280;59606;52.138;5.424;2023-12-14T04:01:39;101389.06;;;5.68;100.00
71772;BME280;59606;52.138;5.424;2023-12-14T04:04:06;101388.22;;;5.66;100.00
71772;BME280;59606;52.138;5.424;2023-12-14T04:06:32;101396.88;;;5.65;100.00
71772;BME280;59606;52.138;5.424;2023-12-14T04:08:59;101392.63;;;5.63;100.00
71772;BME280;59606;52.138;5.424;2023-12-14T04:11:25;101410.78;;;5.61;100.00
71772;BME280;59606;52.138;5.424;2023-12-14T04:13:52;101416.91;;;5.57;100.00
71772;BME280;59606;52.138;5.424;2023-12-14T04:16:20;101433.28;;;5.56;100.00
71772;BME280;59606;52.138;5.424;2023-12-14T04:18:51;101427.28;;;5.56;100.00
71772;BME280;59606;52.138;5.424;2023-12-14T04:21:18;101431.59;;;5.55;100.00
71772;BME280;59606;52.138;5.424;2023-12-14T04:23:45;101441.94;;;5.55;100.00
71772;BME280;59606;52.138;5.424;2023-12-14T04:26:12;101444.53;;;5.55;100.00
71772;BME280;59606;52.138;5.424;2023-12-14T04:28:40;101443.69;;;5.55;100.00
71772;BME280;59606;52.138;5.424;2023-12-14T04:31:07;101448.06;;;5.51;100.00
71772;BME280;59606;52.138;5.424;2023-12-14T04:33:34;101455.81;;;5.51;100.00
71772;BME280;59606;52.138;5.424;2023-12-14T04:36:00;101447.22;;;5.51;100.00
71772;BME280;59606;52.138;5.424;2023-12-14T04:38:27;101458.44;;;5.50;100.00
71772;BME280;59606;52.138;5.424;2023-12-14T04:40:54;101462.75;;;5.49;100.00
71772;BME280;59606;52.138;5.424;2023-12-14T04:43:21;101466.22;;;5.48;100.00
71772;BME280;59606;52.138;5.424;2023-12-14T04:45:47;101476.56;;;5.48;100.00
71772;BME280;59606;52.138;5.424;2023-12-14T04:48:14;101484.38;;;5.47;100.00
71772;BME280;59606;52.138;5.424;2023-12-14T04:50:41;101489.56;;;5.45;100.00
71772;BME280;59606;52.138;5.424;2023-12-14T04:53:08;101493.88;;;5.44;100.00
71772;BME280;59606;52.138;5.424;2023-12-14T04:55:34;101499.06;;;5.43;100.00
71772;BME280;59606;52.138;5.424;2023-12-14T04:58:01;101505.97;;;5.44;100.00
71772;BME280;59606;52.138;5.424;2023-12-14T05:00:28;101517.97;;;5.47;100.00
71772;BME280;59606;52.138;5.424;2023-12-14T05:02:54;101524.81;;;5.48;100.00
71772;BME280;59606;52.138;5.424;2023-12-14T05:05:20;101530.00;;;5.46;100.00
71772;BME280;59606;52.138;5.424;2023-12-14T05:07:47;101531.78;;;5.44;100.00
71772;BME280;59606;52.138;5.424;2023-12-14T05:10:14;101536.97;;;5.44;100.00
71772;BME280;59606;52.138;5.424;2023-12-14T05:12:40;101535.25;;;5.43;100.00
71772;BME280;59606;52.138;5.424;2023-12-14T05:15:07;101542.13;;;5.44;100.00
71772;BME280;59606;52.138;5.424;2023-12-14T05:17:34;101547.31;;;5.44;100.00
71772;BME280;59606;52.138;5.424;2023-12-14T05:20:08;101567.16;;;5.42;100.00
71772;BME280;59606;52.138;5.424;2023-12-14T05:22:35;101571.47;;;5.41;100.00
71772;BME280;59606;52.138;5.424;2023-12-14T05:25:02;101576.63;;;5.41;100.00
71772;BME280;59606;52.138;5.424;2023-12-14T05:27:29;101586.97;;;5.41;100.00
71772;BME280;59606;52.138;5.424;2023-12-14T05:29:55;101580.13;;;5.39;100.00
71772;BME280;59606;52.138;5.424;2023-12-14T05:32:22;101585.28;;;5.39;100.00
71772;BME280;59606;52.138;5.424;2023-12-14T05:34:48;101587.03;;;5.40;100.00
71772;BME280;59606;52.138;5.424;2023-12-14T05:37:15;101597.31;;;5.41;100.00
71772;BME280;59606;52.138;5.424;2023-12-14T05:39:43;101600.72;;;5.43;100.00
71772;BME280;59606;52.138;5.424;2023-12-14T05:42:09;101599.03;;;5.41;100.00
71772;BME280;59606;52.138;5.424;2023-12-14T05:44:36;101594.78;;;5.40;100.00
71772;BME280;59606;52.138;5.424;2023-12-14T05:47:02;101602.53;;;5.38;100.00
71772;BME280;59606;52.138;5.424;2023-12-14T05:49:29;101599.09;;;5.38;100.00
71772;BME280;59606;52.138;5.424;2023-12-14T05:51:58;101604.28;;;5.38;100.00
71772;BME280;59606;52.138;5.424;2023-12-14T05:54:25;101614.53;;;5.41;100.00
71772;BME280;59606;52.138;5.424;2023-12-14T05:56:51;101616.28;;;5.40;100.00
71772;BME280;59606;52.138;5.424;2023-12-14T05:59:18;101623.25;;;5.37;100.00
71772;BME280;59606;52.138;5.424;2023-12-14T06:01:44;101614.72;;;5.33;100.00
71772;BME280;59606;52.138;5.424;2023-12-14T06:04:11;101631.03;;;5.35;100.00
71772;BME280;59606;52.138;5.424;2023-12-14T06:06:38;101634.50;;;5.34;100.00
71772;BME280;59606;52.138;5.424;2023-12-14T06:09:05;101636.31;;;5.29;100.00
71772;BME280;59606;52.138;5.424;2023-12-14T06:11:35;101646.75;;;5.25;100.00
71772;BME280;59606;52.138;5.424;2023-12-14T06:14:03;101639.88;;;5.24;100.00
71772;BME280;59606;52.138;5.424;2023-12-14T06:16:30;101645.06;;;5.22;100.00
71772;BME280;59606;52.138;5.424;2023-12-14T06:18:57;101648.50;;;5.23;100.00
71772;BME280;59606;52.138;5.424;2023-12-14T06:21:23;101649.38;;;5.22;100.00
71772;BME280;59606;52.138;5.424;2023-12-14T06:23:55;101647.69;;;5.20;100.00
71772;BME280;59606;52.138;5.424;2023-12-14T06:26:22;101661.47;;;5.19;100.00
71772;BME280;59606;52.138;5.424;2023-12-14T06:28:49;101670.94;;;5.20;100.00
71772;BME280;59606;52.138;5.424;2023-12-14T06:31:17;101669.19;;;5.21;100.00
71772;BME280;59606;52.138;5.424;2023-12-14T06:33:44;101676.13;;;5.19;100.00
71772;BME280;59606;52.138;5.424;2023-12-14T06:36:11;101689.09;;;5.16;100.00
71772;BME280;59606;52.138;5.424;2023-12-14T06:38:38;101696.03;;;5.14;100.00
71772;BME280;59606;52.138;5.424;2023-12-14T06:41:06;101699.50;;;5.11;100.00
71772;BME280;59606;52.138;5.424;2023-12-14T06:43:33;101704.69;;;5.11;100.00
71772;BME280;59606;52.138;5.424;2023-12-14T06:46:00;101710.72;;;5.10;100.00
71772;BME280;59606;52.138;5.424;2023-12-14T06:48:26;101719.34;;;5.09;100.00
71772;BME280;59606;52.138;5.424;2023-12-14T06:50:53;101726.28;;;5.07;100.00
71772;BME280;59606;52.138;5.424;2023-12-14T06:53:21;101715.94;;;5.07;100.00
71772;BME280;59606;52.138;5.424;2023-12-14T06:55:47;101724.53;;;5.08;100.00
71772;BME280;59606;52.138;5.424;2023-12-14T06:58:14;101734.06;;;5.04;100.00
71772;BME280;59606;52.138;5.424;2023-12-14T07:00:41;101730.66;;;5.02;100.00
71772;BME280;59606;52.138;5.424;2023-12-14T07:03:08;101737.56;;;5.02;100.00
71772;BME280;59606;52.138;5.424;2023-12-14T07:05:35;101744.47;;;5.00;100.00
71772;BME280;59606;52.138;5.424;2023-12-14T07:08:02;101756.56;;;4.97;100.00
71772;BME280;59606;52.138;5.424;2023-12-14T07:10:29;101763.53;;;4.94;100.00
71772;BME280;59606;52.138;5.424;2023-12-14T07:12:56;101760.09;;;4.93;100.00
71772;BME280;59606;52.138;5.424;2023-12-14T07:15:23;101768.69;;;4.94;100.00
71772;BME280;59606;52.138;5.424;2023-12-14T07:17:50;101776.44;;;4.94;100.00
71772;BME280;59606;52.138;5.424;2023-12-14T07:20:16;101780.78;;;4.90;100.00
71772;BME280;59606;52.138;5.424;2023-12-14T07:22:43;101779.94;;;4.88;100.00
71772;BME280;59606;52.138;5.424;2023-12-14T07:25:10;101776.50;;;4.89;100.00
71772;BME280;59606;52.138;5.424;2023-12-14T07:27:36;101785.09;;;4.90;100.00
71772;BME280;59606;52.138;5.424;2023-12-14T07:30:03;101784.22;;;4.89;100.00
71772;BME280;59606;52.138;5.424;2023-12-14T07:32:30;101787.69;;;4.90;100.00
71772;BME280;59606;52.138;5.424;2023-12-14T07:34:56;101795.44;;;4.88;100.00
71772;BME280;59606;52.138;5.424;2023-12-14T07:37:23;101795.44;;;4.88;100.00
71772;BME280;59606;52.138;5.424;2023-12-14T07:39:49;101806.63;;;4.90;100.00
71772;BME280;59606;52.138;5.424;2023-12-14T07:42:17;101807.53;;;4.86;100.00
71772;BME280;59606;52.138;5.424;2023-12-14T07:44:46;101804.97;;;4.85;100.00
71772;BME280;59606;52.138;5.424;2023-12-14T07:47:13;101812.72;;;4.85;100.00
71772;BME280;59606;52.138;5.424;2023-12-14T07:49:40;101817.00;;;4.86;100.00
71772;BME280;59606;52.138;5.424;2023-12-14T07:52:07;101815.34;;;4.83;100.00
71772;BME280;59606;52.138;5.424;2023-12-14T07:54:34;101817.00;;;4.86;100.00
71772;BME280;59606;52.138;5.424;2023-12-14T07:57:01;101829.91;;;4.87;100.00
71772;BME280;59606;52.138;5.424;2023-12-14T07:59:27;101829.00;;;4.88;100.00
71772;BME280;59606;52.138;5.424;2023-12-14T08:01:56;101833.28;;;4.91;100.00
71772;BME280;59606;52.138;5.424;2023-12-14T08:04:22;101826.38;;;4.93;100.00
71772;BME280;59606;52.138;5.424;2023-12-14T08:06:50;101834.13;;;4.91;100.00
71772;BME280;59606;52.138;5.424;2023-12-14T08:09:17;101840.13;;;4.92;100.00
71772;BME280;59606;52.138;5.424;2023-12-14T08:11:44;101837.56;;;4.93;100.00
71772;BME280;59606;52.138;5.424;2023-12-14T08:14:10;101840.97;;;4.94;100.00
71772;BME280;59606;52.138;5.424;2023-12-14T08:16:37;101844.41;;;4.94;100.00
71772;BME280;59606;52.138;5.424;2023-12-14T08:19:04;101838.41;;;4.92;100.00
71772;BME280;59606;52.138;5.424;2023-12-14T08:21:31;101848.78;;;4.91;100.00
71772;BME280;59606;52.138;5.424;2023-12-14T08:23:57;101859.09;;;4.91;100.00
71772;BME280;59606;52.138;5.424;2023-12-14T08:26:24;101864.22;;;4.92;100.00
71772;BME280;59606;52.138;5.424;2023-12-14T08:28:50;101870.22;;;4.94;100.00
71772;BME280;59606;52.138;5.424;2023-12-14T08:31:17;101879.66;;;4.97;100.00
71772;BME280;59606;52.138;5.424;2023-12-14T08:33:44;101879.66;;;4.97;100.00
71772;BME280;59606;52.138;5.424;2023-12-14T08:36:16;101874.56;;;4.94;100.00
71772;BME280;59606;52.138;5.424;2023-12-14T08:38:43;101870.22;;;4.94;100.00
71772;BME280;59606;52.138;5.424;2023-12-14T08:41:16;101876.25;;;4.95;100.00
71772;BME280;59606;52.138;5.424;2023-12-14T08:43:43;101882.25;;;4.95;100.00
71772;BME280;59606;52.138;5.424;2023-12-14T08:46:10;101885.69;;;4.96;100.00
71772;BME280;59606;52.138;5.424;2023-12-14T08:48:36;101890.84;;;4.96;100.00
71772;BME280;59606;52.138;5.424;2023-12-14T08:51:04;101894.31;;;4.96;100.00
71772;BME280;59606;52.138;5.424;2023-12-14T08:53:31;101895.97;;;4.99;100.00
71772;BME280;59606;52.138;5.424;2023-12-14T08:55:59;101910.63;;;5.00;100.00
71772;BME280;59606;52.138;5.424;2023-12-14T08:58:25;101914.06;;;4.99;100.00
71772;BME280;59606;52.138;5.424;2023-12-14T09:00:52;101916.63;;;4.99;100.00
71772;BME280;59606;52.138;5.424;2023-12-14T09:03:19;101917.47;;;5.01;100.00
71772;BME280;59606;52.138;5.424;2023-12-14T09:05:46;101920.91;;;5.02;100.00
71772;BME280;59606;52.138;5.424;2023-12-14T09:08:14;101932.97;;;5.01;100.00
71772;BME280;59606;52.138;5.424;2023-12-14T09:10:40;101928.66;;;5.02;100.00
71772;BME280;59606;52.138;5.424;2023-12-14T09:13:07;101930.41;;;5.01;100.00
71772;BME280;59606;52.138;5.424;2023-12-14T09:15:34;101939.84;;;5.02;100.00
71772;BME280;59606;52.138;5.424;2023-12-14T09:18:01;101945.88;;;5.01;100.00
71772;BME280;59606;52.138;5.424;2023-12-14T09:20:29;101948.44;;;5.03;100.00
71772;BME280;59606;52.138;5.424;2023-12-14T09:22:55;101947.53;;;5.05;100.00
71772;BME280;59606;52.138;5.424;2023-12-14T09:25:22;101956.13;;;5.06;100.00
71772;BME280;59606;52.138;5.424;2023-12-14T09:27:49;101960.50;;;5.04;100.00
71772;BME280;59606;52.138;5.424;2023-12-14T09:30:17;101957.03;;;5.05;100.00
71772;BME280;59606;52.138;5.424;2023-12-14T09:32:44;101964.75;;;5.06;100.00
71772;BME280;59606;52.138;5.424;2023-12-14T09:35:11;101969.91;;;5.06;100.00
71772;BME280;59606;52.138;5.424;2023-12-14T09:37:37;101979.38;;;5.07;100.00
71772;BME280;59606;52.138;5.424;2023-12-14T09:40:05;101976.75;;;5.09;100.00
71772;BME280;59606;52.138;5.424;2023-12-14T09:42:37;101982.78;;;5.09;100.00
71772;BME280;59606;52.138;5.424;2023-12-14T09:45:07;101979.31;;;5.12;100.00
71772;BME280;59606;52.138;5.424;2023-12-14T09:47:38;101986.16;;;5.14;100.00
71772;BME280;59606;52.138;5.424;2023-12-14T09:50:06;101987.03;;;5.15;100.00
71772;BME280;59606;52.138;5.424;2023-12-14T09:52:33;101996.50;;;5.14;100.00
71772;BME280;59606;52.138;5.424;2023-12-14T09:55:00;102006.84;;;5.14;100.00
71772;BME280;59606;52.138;5.424;2023-12-14T09:57:27;102009.38;;;5.16;100.00
71772;BME280;59606;52.138;5.424;2023-12-14T09:59:53;102016.25;;;5.18;100.00
71772;BME280;59606;52.138;5.424;2023-12-14T10:02:25;102028.31;;;5.18;100.00
71772;BME280;59606;52.138;5.424;2023-12-14T10:04:53;102024.88;;;5.17;100.00
71772;BME280;59606;52.138;5.424;2023-12-14T10:07:21;102041.22;;;5.18;100.00
71772;BME280;59606;52.138;5.424;2023-12-14T10:09:48;102036.03;;;5.19;100.00
71772;BME280;59606;52.138;5.424;2023-12-14T10:12:15;102041.19;;;5.19;100.00
71772;BME280;59606;52.138;5.424;2023-12-14T10:14:42;102035.97;;;5.23;100.00
71772;BME280;59606;52.138;5.424;2023-12-14T10:17:21;102038.53;;;5.26;100.00
71772;BME280;59606;52.138;5.424;2023-12-14T10:19:48;102033.31;;;5.29;100.00
71772;BME280;59606;52.138;5.424;2023-12-14T10:22:16;102031.50;;;5.35;100.00
71772;BME280;59606;52.138;5.424;2023-12-14T10:24:46;102035.78;;;5.36;100.00
71772;BME280;59606;52.138;5.424;2023-12-14T10:27:16;102040.91;;;5.41;100.00
71772;BME280;59606;52.138;5.424;2023-12-14T10:29:43;102027.97;;;5.44;100.00
71772;BME280;59606;52.138;5.424;2023-12-14T10:32:12;102041.66;;;5.49;100.00
71772;BME280;59606;52.138;5.424;2023-12-14T10:34:38;102038.22;;;5.50;100.00
71772;BME280;59606;52.138;5.424;2023-12-14T10:37:08;102039.88;;;5.54;100.00
71772;BME280;59606;52.138;5.424;2023-12-14T10:39:35;102047.59;;;5.57;100.00
71772;BME280;59606;52.138;5.424;2023-12-14T10:42:03;102040.59;;;5.62;100.00
71772;BME280;59606;52.138;5.424;2023-12-14T10:44:45;102036.28;;;5.63;100.00
71772;BME280;59606;52.138;5.424;2023-12-14T10:47:34;102044.03;;;5.63;100.00
71772;BME280;59606;52.138;5.424;2023-12-14T10:50:01;102043.19;;;5.64;100.00
71772;BME280;59606;52.138;5.424;2023-12-14T10:52:29;102034.56;;;5.63;100.00
71772;BME280;59606;52.138;5.424;2023-12-14T10:55:00;102049.19;;;5.64;100.00
71772;BME280;59606;52.138;5.424;2023-12-14T10:57:28;102043.13;;;5.67;100.00
71772;BME280;59606;52.138;5.424;2023-12-14T10:59:58;102046.56;;;5.67;100.00
71772;BME280;59606;52.138;5.424;2023-12-14T11:02:27;102050.00;;;5.66;100.00
71772;BME280;59606;52.138;5.424;2023-12-14T11:04:59;102051.78;;;5.64;100.00
71772;BME280;59606;52.138;5.424;2023-12-14T11:07:46;102058.69;;;5.64;100.00
71772;BME280;59606;52.138;5.424;2023-12-14T11:10:14;102061.28;;;5.62;100.00
71772;BME280;59606;52.138;5.424;2023-12-14T11:12:54;102068.22;;;5.60;100.00
71772;BME280;59606;52.138;5.424;2023-12-14T11:15:22;102067.38;;;5.58;100.00
71772;BME280;59606;52.138;5.424;2023-12-14T11:23:13;102083.56;;;5.70;100.00
71772;BME280;59606;52.138;5.424;2023-12-14T11:25:49;102086.97;;;5.75;100.00
71772;BME280;59606;52.138;5.424;2023-12-14T11:28:24;102093.78;;;5.79;100.00
71772;BME280;59606;52.138;5.424;2023-12-14T11:30:54;102085.09;;;5.83;100.00
71772;BME280;59606;52.138;5.424;2023-12-14T11:33:22;102089.34;;;5.88;100.00
71772;BME280;59606;52.138;5.424;2023-12-14T11:35:51;102088.44;;;5.94;100.00
71772;BME280;59606;52.138;5.424;2023-12-14T11:38:19;102094.41;;;5.96;100.00
71772;BME280;59606;52.138;5.424;2023-12-14T11:40:48;102094.41;;;5.96;100.00
71772;BME280;59606;52.138;5.424;2023-12-14T11:43:15;102087.47;;;6.00;100.00
71772;BME280;59606;52.138;5.424;2023-12-14T11:45:42;102090.84;;;6.03;100.00
71772;BME280;59606;52.138;5.424;2023-12-14T11:48:11;102088.22;;;6.06;100.00
71772;BME280;59606;52.138;5.424;2023-12-14T11:50:39;102090.75;;;6.11;100.00
71772;BME280;59606;52.138;5.424;2023-12-14T11:53:07;102088.16;;;6.11;100.00
71772;BME280;59606;52.138;5.424;2023-12-14T11:55:37;102088.97;;;6.13;100.00
71772;BME280;59606;52.138;5.424;2023-12-14T11:58:04;102094.16;;;6.14;100.00
71772;BME280;59606;52.138;5.424;2023-12-14T12:00:32;102090.66;;;6.16;100.00
71772;BME280;59606;52.138;5.424;2023-12-14T12:05:36;102099.28;;;6.16;100.00
71772;BME280;59606;52.138;5.424;2023-12-14T12:08:03;102098.34;;;6.20;100.00
71772;BME280;59606;52.138;5.424;2023-12-14T12:10:30;102105.25;;;6.20;100.00
71772;BME280;59606;52.138;5.424;2023-12-14T12:13:07;102106.19;;;6.16;100.00
71772;BME280;59606;52.138;5.424;2023-12-14T12:15:35;102107.13;;;6.11;100.00
71772;BME280;59606;52.138;5.424;2023-12-14T12:18:07;102109.75;;;6.08;100.00
71772;BME280;59606;52.138;5.424;2023-12-14T12:20:34;102106.34;;;6.06;100.00
71772;BME280;59606;52.138;5.424;2023-12-14T12:23:01;102108.03;;;6.09;100.00
71772;BME280;59606;52.138;5.424;2023-12-14T12:25:32;102121.81;;;6.09;100.00
71772;BME280;59606;52.138;5.424;2023-12-14T12:28:01;102111.47;;;6.09;100.00
71772;BME280;59606;52.138;5.424;2023-12-14T12:30:27;102118.41;;;6.06;100.00
71772;BME280;59606;52.138;5.424;2023-12-14T12:32:54;102117.53;;;6.07;100.00
71772;BME280;59606;52.138;5.424;2023-12-14T12:35:23;102125.31;;;6.05;100.00
71772;BME280;59606;52.138;5.424;2023-12-14T12:37:50;102122.69;;;6.07;100.00
71772;BME280;59606;52.138;5.424;2023-12-14T12:40:21;102122.75;;;6.05;100.00
71772;BME280;59606;52.138;5.424;2023-12-14T12:42:49;102127.91;;;6.05;100.00
71772;BME280;59606;52.138;5.424;2023-12-14T12:45:17;102131.34;;;6.06;100.00
71772;BME280;59606;52.138;5.424;2023-12-14T12:47:44;102130.47;;;6.08;100.00
71772;BME280;59606;52.138;5.424;2023-12-14T12:50:12;102135.59;;;6.11;100.00
71772;BME280;59606;52.138;5.424;2023-12-14T12:52:39;102140.75;;;6.11;100.00
71772;BME280;59606;52.138;5.424;2023-12-14T12:55:10;102132.97;;;6.13;100.00
71772;BME280;59606;52.138;5.424;2023-12-14T12:57:37;102133.00;;;6.11;100.00
71772;BME280;59606;52.138;5.424;2023-12-14T13:00:04;102138.19;;;6.11;100.00